createdAt,value
2023-01-23T00:00:39.894Z,103746.88
2023-01-23T00:03:06.563Z,103746.09
2023-01-23T00:05:33.089Z,103747.69
2023-01-23T00:07:59.589Z,103760.06
2023-01-23T00:10:26.105Z,103761.13
2023-01-23T00:12:55.505Z,103760.31
2023-01-23T00:15:22.118Z,103762.19
2023-01-23T00:17:48.657Z,103751.44
2023-01-23T00:20:15.433Z,103759.50
2023-01-23T00:22:41.961Z,103754.38
2023-01-23T00:25:08.744Z,103754.94
2023-01-23T00:27:35.349Z,103751.44
2023-01-23T00:30:01.890Z,103755.19
2023-01-23T00:32:28.699Z,103761.13
2023-01-23T00:34:57.398Z,103759.50
2023-01-23T00:37:23.890Z,103753.56
2023-01-23T00:39:50.984Z,103761.63
2023-01-23T00:42:18.771Z,103761.34
2023-01-23T00:44:45.314Z,103759.75
2023-01-23T00:47:11.864Z,103750.88
2023-01-23T00:49:38.497Z,103747.38
2023-01-23T00:52:05.266Z,103746.84
2023-01-23T00:54:31.752Z,103743.31
2023-01-23T00:56:58.246Z,103751.94
2023-01-23T00:59:24.748Z,103751.13
2023-01-23T01:01:51.461Z,103750.06
2023-01-23T01:04:18.020Z,103739.59
2023-01-23T01:06:44.539Z,103739.31
2023-01-23T01:09:11.035Z,103733.16
2023-01-23T01:11:38.089Z,103735.03
2023-01-23T01:14:05.528Z,103741.75
2023-01-23T01:16:32.202Z,103731.03
2023-01-23T01:18:58.967Z,103735.25
2023-01-23T01:21:25.540Z,103733.66
2023-01-23T01:23:52.239Z,103735.53
2023-01-23T01:26:18.741Z,103730.16
2023-01-23T01:28:45.257Z,103735.53
2023-01-23T01:31:14.798Z,103739.78
2023-01-23T01:33:43.340Z,103748.63
2023-01-23T01:36:12.407Z,103748.88
2023-01-23T01:38:38.961Z,103755.06
2023-01-23T01:41:08.315Z,103749.94
2023-01-23T01:43:35.350Z,103748.06
2023-01-23T01:46:20.228Z,103747.03
2023-01-23T01:49:03.525Z,103746.75
2023-01-23T01:51:35.316Z,103749.44
2023-01-23T01:54:09.397Z,103737.31
2023-01-23T01:56:45.565Z,103743.25
2023-01-23T01:59:14.037Z,103751.31
2023-01-23T02:01:42.383Z,103746.75
2023-01-23T02:04:10.773Z,103749.19
2023-01-23T02:06:37.537Z,103755.13
2023-01-23T02:09:11.339Z,103758.63
2023-01-23T02:11:37.978Z,103753.25
2023-01-23T02:14:04.758Z,103752.72
2023-01-23T02:16:40.264Z,103753.81
2023-01-23T02:19:21.005Z,103753.81
2023-01-23T02:21:54.563Z,103754.63
2023-01-23T02:24:31.887Z,103756.72
2023-01-23T02:26:58.421Z,103765.34
2023-01-23T02:29:25.816Z,103767.00
2023-01-23T02:31:53.401Z,103771.28
2023-01-23T02:34:22.208Z,103764.31
2023-01-23T02:36:48.931Z,103766.16
2023-01-23T02:39:19.517Z,103770.47
2023-01-23T02:41:49.463Z,103765.34
2023-01-23T02:44:17.172Z,103765.91
2023-01-23T02:46:44.088Z,103775.84
2023-01-23T02:49:11.603Z,103778.75
2023-01-23T02:51:38.101Z,103778.75
2023-01-23T02:54:05.063Z,103791.13
2023-01-23T02:56:31.769Z,103781.22
2023-01-23T02:59:17.103Z,103787.63
2023-01-23T03:01:43.761Z,103785.50
2023-01-23T03:04:10.303Z,103784.47
2023-01-23T03:06:37.738Z,103784.47
2023-01-23T03:09:09.575Z,103788.19
2023-01-23T03:11:38.440Z,103786.34
2023-01-23T03:14:07.262Z,103789.03
2023-01-23T03:16:37.209Z,103786.06
2023-01-23T03:19:09.820Z,103780.72
2023-01-23T03:21:40.442Z,103785.50
2023-01-23T03:24:11.196Z,103784.69
2023-01-23T03:26:40.200Z,103783.66
2023-01-23T03:29:26.256Z,103780.97
2023-01-23T03:31:53.524Z,103783.66
2023-01-23T03:34:22.239Z,103781.78
2023-01-23T03:36:49.696Z,103786.91
2023-01-23T03:39:35.719Z,103786.91
2023-01-23T03:42:02.183Z,103790.63
2023-01-23T03:44:28.667Z,103789.59
2023-01-23T03:46:55.136Z,103786.06
2023-01-23T03:49:21.786Z,103778.84
2023-01-23T03:51:48.347Z,103785.84
2023-01-23T03:54:14.914Z,103787.72
2023-01-23T03:56:42.472Z,103788.75
2023-01-23T03:59:09.986Z,103795.75
2023-01-23T04:01:37.845Z,103795.19
2023-01-23T04:04:06.667Z,103786.91
2023-01-23T04:06:33.272Z,103791.19
2023-01-23T04:08:59.846Z,103796.56
2023-01-23T04:11:26.649Z,103793.38
2023-01-23T04:13:54.339Z,103791.75
2023-01-23T04:16:22.810Z,103797.13
2023-01-23T04:18:50.450Z,103795.50
2023-01-23T04:21:17.370Z,103808.69
2023-01-23T04:23:43.881Z,103811.34
2023-01-23T04:26:10.548Z,103813.00
2023-01-23T04:28:37.281Z,103808.44
2023-01-23T04:31:04.327Z,103804.94
2023-01-23T04:33:30.960Z,103805.19
2023-01-23T04:36:01.084Z,103807.06
2023-01-23T04:38:31.252Z,103810.31
2023-01-23T04:40:57.915Z,103807.38
2023-01-23T04:43:25.446Z,103798.50
2023-01-23T04:45:53.667Z,103795.81
2023-01-23T04:48:20.732Z,103801.75
2023-01-23T04:50:48.895Z,103803.38
2023-01-23T04:53:15.809Z,103800.69
2023-01-23T04:55:42.401Z,103804.19
2023-01-23T04:58:11.535Z,103802.31
2023-01-23T05:00:38.561Z,103801.53
2023-01-23T05:03:05.593Z,103798.84
2023-01-23T05:05:34.486Z,103803.94
2023-01-23T05:08:01.038Z,103803.13
2023-01-23T05:10:27.588Z,103810.13
2023-01-23T05:12:54.279Z,103812.81
2023-01-23T05:15:21.284Z,103815.75
2023-01-23T05:17:49.860Z,103813.88
2023-01-23T05:20:17.903Z,103819.47
2023-01-23T05:22:52.787Z,103824.28
2023-01-23T05:25:27.825Z,103811.69
2023-01-23T05:27:54.772Z,103824.03
2023-01-23T05:30:23.124Z,103821.34
2023-01-23T05:32:51.007Z,103824.84
2023-01-23T05:35:17.678Z,103831.84
2023-01-23T05:37:49.944Z,103825.41
2023-01-23T05:40:16.569Z,103829.16
2023-01-23T05:42:43.200Z,103826.25
2023-01-23T05:45:10.269Z,103828.09
2023-01-23T05:47:36.813Z,103828.66
2023-01-23T05:50:04.362Z,103828.94
2023-01-23T05:52:31.293Z,103824.59
2023-01-23T05:54:57.932Z,103828.66
2023-01-23T05:57:24.636Z,103832.16
2023-01-23T05:59:51.250Z,103827.03
2023-01-23T06:02:18.727Z,103825.16
2023-01-23T06:04:47.897Z,103825.16
2023-01-23T06:07:16.985Z,103828.66
2023-01-23T06:09:43.629Z,103822.47
2023-01-23T06:12:10.959Z,103826.78
2023-01-23T06:14:37.549Z,103831.34
2023-01-23T06:17:04.549Z,103830.31
2023-01-23T06:19:31.444Z,103825.50
2023-01-23T06:21:59.017Z,103830.88
2023-01-23T06:24:25.585Z,103830.03
2023-01-23T06:26:52.993Z,103839.97
2023-01-23T06:29:19.975Z,103837.50
2023-01-23T06:31:47.608Z,103852.00
2023-01-23T06:34:15.141Z,103855.50
2023-01-23T06:36:42.183Z,103858.47
2023-01-23T06:39:12.977Z,103871.03
2023-01-23T06:41:39.422Z,103871.03
2023-01-23T06:44:06.517Z,103865.44
2023-01-23T06:46:33.392Z,103867.03
2023-01-23T06:49:01.287Z,103872.41
2023-01-23T06:51:28.956Z,103877.78
2023-01-23T06:53:56.414Z,103885.84
2023-01-23T06:56:22.922Z,103876.97
2023-01-23T06:58:49.447Z,103880.22
2023-01-23T07:01:17.738Z,103868.69
2023-01-23T07:03:46.019Z,103871.38
2023-01-23T07:06:14.564Z,103864.13
2023-01-23T07:08:42.401Z,103863.06
2023-01-23T07:11:09.901Z,103861.19
2023-01-23T07:13:36.645Z,103864.44
2023-01-23T07:16:03.658Z,103867.13
2023-01-23T07:18:30.502Z,103866.56
2023-01-23T07:21:00.357Z,103859.09
2023-01-23T07:24:31.391Z,103859.31
2023-01-23T07:26:58.284Z,103859.88
2023-01-23T07:29:24.924Z,103870.63
2023-01-23T07:31:51.608Z,103869.56
2023-01-23T07:34:18.204Z,103874.91
2023-01-23T07:36:44.768Z,103884.63
2023-01-23T07:39:12.349Z,103882.25
2023-01-23T07:41:40.806Z,103884.19
2023-01-23T07:44:08.024Z,103876.16
2023-01-23T07:46:34.683Z,103883.06
2023-01-23T07:49:01.733Z,103875.19
2023-01-23T07:51:28.332Z,103880.78
2023-01-23T07:53:54.855Z,103892.34
2023-01-23T07:56:21.451Z,103896.16
2023-01-23T07:58:51.221Z,103898.63
2023-01-23T08:01:19.334Z,103917.16
2023-01-23T08:03:47.587Z,103935.13
2023-01-23T08:06:14.229Z,103925.47
2023-01-23T08:08:41.067Z,103919.00
2023-01-23T08:11:13.582Z,103931.97
2023-01-23T08:13:40.724Z,103924.72
2023-01-23T08:16:07.681Z,103928.22
2023-01-23T08:18:34.471Z,103918.53
2023-01-23T08:21:03.595Z,103918.28
2023-01-23T08:23:34.511Z,103923.16
2023-01-23T08:26:03.680Z,103920.22
2023-01-23T08:28:30.270Z,103928.84
2023-01-23T08:31:05.424Z,103940.16
2023-01-23T08:33:36.287Z,103939.09
2023-01-23T08:36:04.223Z,103948.53
2023-01-23T08:38:31.912Z,103939.16
2023-01-23T08:41:00.849Z,103940.78
2023-01-23T08:43:27.680Z,103933.06
2023-01-23T08:45:56.079Z,103936.53
2023-01-23T08:48:24.608Z,103929.31
2023-01-23T08:50:52.205Z,103936.53
2023-01-23T08:53:18.707Z,103929.06
2023-01-23T08:55:46.251Z,103933.13
2023-01-23T08:58:14.124Z,103934.25
2023-01-23T09:00:41.056Z,103940.19
2023-01-23T09:03:09.869Z,103960.38
2023-01-23T09:05:37.630Z,103962.81
2023-01-23T09:08:04.377Z,103973.88
2023-01-23T09:10:30.971Z,103961.00
2023-01-23T09:12:57.747Z,103965.09
2023-01-23T09:15:24.304Z,103963.78
2023-01-23T09:17:50.938Z,103972.41
2023-01-23T09:20:17.792Z,103961.13
2023-01-23T09:22:46.228Z,103971.38
2023-01-23T09:25:14.280Z,103974.38
2023-01-23T09:27:40.997Z,103967.69
2023-01-23T09:30:08.158Z,103955.63
2023-01-23T09:32:34.692Z,103958.88
2023-01-23T09:35:01.184Z,103960.53
2023-01-23T09:37:50.894Z,103964.34
2023-01-23T09:40:20.673Z,103963.59
2023-01-23T09:42:47.384Z,103974.06
2023-01-23T09:45:20.876Z,103976.28
2023-01-23T09:47:59.510Z,103977.88
2023-01-23T09:50:32.269Z,103986.53
2023-01-23T09:53:06.949Z,103974.19
2023-01-23T09:55:44.218Z,103978.00
2023-01-23T09:58:22.119Z,103983.44
2023-01-23T10:00:52.200Z,103977.81
2023-01-23T10:03:20.258Z,103989.16
2023-01-23T10:06:04.872Z,103994.25
2023-01-23T10:09:02.757Z,103991.56
2023-01-23T10:11:49.762Z,103994.00
2023-01-23T10:14:30.231Z,103990.25
2023-01-23T10:17:22.472Z,103991.88
2023-01-23T10:20:00.508Z,103984.94
2023-01-23T10:22:41.577Z,103979.84
2023-01-23T10:25:16.213Z,103979.56
2023-01-23T10:27:46.153Z,103975.53
2023-01-23T10:30:21.384Z,103975.31
2023-01-23T10:32:57.106Z,103975.03
2023-01-23T10:35:39.253Z,103965.38
2023-01-23T10:38:27.832Z,103959.75
2023-01-23T10:41:12.942Z,103965.38
2023-01-23T10:43:40.734Z,103965.16
2023-01-23T10:46:14.930Z,103964.59
2023-01-23T10:49:01.411Z,103967.53
2023-01-23T10:51:38.578Z,103972.09
2023-01-23T10:54:11.319Z,103976.97
2023-01-23T10:56:48.019Z,103971.88
2023-01-23T10:59:26.420Z,103984.81
2023-01-23T11:02:01.028Z,103968.97
2023-01-23T11:04:31.846Z,103977.03
2023-01-23T11:07:02.329Z,103978.41
2023-01-23T11:09:29.041Z,103968.13
2023-01-23T11:12:04.294Z,103979.44
2023-01-23T11:14:31.745Z,103973.81
2023-01-23T11:17:01.489Z,103979.50
2023-01-23T11:19:31.927Z,103980.28
2023-01-23T11:22:02.182Z,103978.88
2023-01-23T11:24:41.271Z,103971.44
2023-01-23T11:27:15.090Z,103968.47
2023-01-23T11:29:48.652Z,103963.16
2023-01-23T11:32:16.941Z,103965.91
2023-01-23T11:34:49.764Z,103972.09
2023-01-23T11:37:31.589Z,103976.13
2023-01-23T11:40:03.382Z,103977.81
2023-01-23T11:42:29.876Z,103980.25
2023-01-23T11:44:59.756Z,103983.50
2023-01-23T11:47:44.568Z,103978.13
2023-01-23T11:50:11.712Z,103980.84
2023-01-23T11:52:57.125Z,103978.41
2023-01-23T11:55:42.943Z,103971.16
2023-01-23T11:58:17.410Z,103972.22
2023-01-23T12:00:48.206Z,103964.69
2023-01-23T12:03:46.639Z,103971.44
2023-01-23T12:06:31.799Z,103965.84
2023-01-23T12:09:10.989Z,103964.56
2023-01-23T12:11:45.765Z,103967.06
2023-01-23T12:14:24.865Z,103966.00
2023-01-23T12:17:09.099Z,103960.56
2023-01-23T12:19:51.718Z,103960.56
2023-01-23T12:22:33.169Z,103961.16
2023-01-23T12:25:24.839Z,103964.94
2023-01-23T12:28:01.522Z,103962.25
2023-01-23T12:30:29.117Z,103962.81
2023-01-23T12:33:02.562Z,103959.28
2023-01-23T12:35:40.536Z,103961.47
2023-01-23T12:38:11.644Z,103956.34
2023-01-23T12:40:40.238Z,103960.16
2023-01-23T12:43:10.713Z,103957.22
2023-01-23T12:45:47.608Z,103958.91
2023-01-23T12:48:19.612Z,103954.31
2023-01-23T12:50:56.085Z,103964.59
2023-01-23T12:53:23.220Z,103965.66
2023-01-23T12:56:02.774Z,103962.47
2023-01-23T12:58:35.177Z,103970.00
2023-01-23T13:01:30.718Z,103974.34
2023-01-23T13:04:03.263Z,103986.75
2023-01-23T13:06:45.249Z,103967.88
2023-01-23T13:09:22.704Z,103967.06
2023-01-23T13:12:12.692Z,103966.25
2023-01-23T13:15:00.583Z,103969.75
2023-01-23T13:17:31.505Z,103969.22
2023-01-23T13:20:38.788Z,103963.56
2023-01-23T13:23:33.432Z,103971.66
2023-01-23T13:26:15.235Z,103973.50
2023-01-23T13:28:46.484Z,103968.97
2023-01-23T13:31:33.885Z,103972.47
2023-01-23T13:34:15.031Z,103973.25
2023-01-23T13:36:44.101Z,103965.72
2023-01-23T13:39:16.835Z,103977.06
2023-01-23T13:41:45.824Z,103981.38
2023-01-23T13:44:19.062Z,103978.66
2023-01-23T14:21:49.192Z,103920.69
2023-01-23T14:24:23.368Z,103912.63
2023-01-23T14:27:02.462Z,103918.00
2023-01-23T14:29:31.208Z,103910.72
2023-01-23T14:31:57.978Z,103910.16
2023-01-23T14:34:26.216Z,103916.66
2023-01-23T14:36:59.950Z,103919.59
2023-01-23T14:39:29.267Z,103908.53
2023-01-23T14:42:02.043Z,103912.56
2023-01-23T14:44:35.410Z,103916.59
2023-01-23T14:47:04.137Z,103916.03
2023-01-23T14:49:35.395Z,103920.88
2023-01-23T14:52:05.544Z,103922.75
2023-01-23T14:54:34.490Z,103928.16
2023-01-23T14:57:05.679Z,103932.72
2023-01-23T14:59:39.106Z,103928.69
2023-01-23T15:02:31.421Z,103925.19
2023-01-23T15:05:11.712Z,103919.78
2023-01-23T15:07:45.666Z,103922.19
2023-01-23T15:10:20.852Z,103925.69
2023-01-23T15:12:51.402Z,103929.47
2023-01-23T15:15:20.757Z,103937.25
2023-01-23T15:17:47.786Z,103940.75
2023-01-23T15:20:30.291Z,103948.81
2023-01-23T15:22:58.195Z,103937.22
2023-01-23T15:25:33.749Z,103952.84
2023-01-23T15:28:00.373Z,103953.34
2023-01-23T15:30:37.854Z,103964.13
2023-01-23T15:33:30.739Z,103960.88
2023-01-23T15:36:06.607Z,103951.97
2023-01-23T15:38:33.344Z,103945.53
2023-01-23T15:41:00.681Z,103947.69
2023-01-23T15:43:27.210Z,103945.53
2023-01-23T15:45:53.983Z,103955.75
2023-01-23T15:48:27.526Z,103949.03
2023-01-23T15:50:54.110Z,103951.19
2023-01-23T15:53:20.749Z,103941.50
2023-01-23T15:55:47.384Z,103938.00
2023-01-23T15:58:17.192Z,103940.16
2023-01-23T16:00:44.059Z,103941.75
2023-01-23T16:03:14.500Z,103947.09
2023-01-23T16:05:42.667Z,103943.63
2023-01-23T16:08:24.407Z,103944.16
2023-01-23T16:10:53.554Z,103945.78
2023-01-23T16:13:21.138Z,103946.59
2023-01-23T16:15:50.639Z,103939.34
2023-01-23T16:18:19.713Z,103938.78
2023-01-23T16:20:46.880Z,103946.56
2023-01-23T16:23:25.939Z,103948.13
2023-01-23T16:25:54.373Z,103952.69
2023-01-23T16:28:23.851Z,103951.81
2023-01-23T16:30:52.625Z,103955.53
2023-01-23T16:33:20.378Z,103954.69
2023-01-23T16:35:48.916Z,103962.22
2023-01-23T16:38:24.483Z,103961.88
2023-01-23T16:40:53.509Z,103975.00
2023-01-23T16:43:21.468Z,103975.28
2023-01-23T16:45:48.057Z,103974.50
2023-01-23T16:48:25.471Z,103973.38
2023-01-23T16:50:57.676Z,103981.69
2023-01-23T16:53:28.967Z,103986.81
2023-01-23T16:55:58.266Z,103983.84
2023-01-23T16:58:29.107Z,103990.31
2023-01-23T17:01:03.342Z,103991.94
2023-01-23T17:03:35.253Z,103990.06
2023-01-23T17:06:02.095Z,103993.06
2023-01-23T17:08:32.125Z,103984.97
2023-01-23T17:11:02.602Z,103985.53
2023-01-23T17:13:33.749Z,103993.59
2023-01-23T17:16:02.649Z,103995.25
2023-01-23T17:18:32.960Z,103989.31
2023-01-23T17:21:00.141Z,103990.34
2023-01-23T17:23:26.796Z,103993.06
2023-01-23T17:26:00.727Z,103991.16
2023-01-23T17:28:34.358Z,103992.81
2023-01-23T17:31:01.351Z,103993.38
2023-01-23T17:33:31.999Z,103992.56
2023-01-23T17:36:00.534Z,103997.66
2023-01-23T17:38:30.999Z,104000.91
2023-01-23T17:40:57.629Z,104008.19
2023-01-23T17:43:24.236Z,104008.72
2023-01-23T17:45:52.980Z,104013.00
2023-01-23T17:48:29.351Z,104007.63
2023-01-23T17:50:56.499Z,104007.63
2023-01-23T17:53:24.021Z,104016.78
2023-01-23T17:55:52.634Z,104013.25
2023-01-23T17:58:20.264Z,104017.59
2023-01-23T18:00:50.995Z,104019.19
2023-01-23T18:03:25.703Z,104013.81
2023-01-23T18:05:52.367Z,104019.19
2023-01-23T18:08:23.901Z,104021.09
2023-01-23T18:10:53.382Z,104025.66
2023-01-23T18:13:35.019Z,104024.59
2023-01-23T18:16:16.549Z,104021.09
2023-01-23T18:18:43.798Z,104028.09
2023-01-23T18:21:15.429Z,104022.72
2023-01-23T18:23:42.290Z,104024.59
2023-01-23T18:26:17.388Z,104024.59
2023-01-23T18:29:03.895Z,104032.63
2023-01-23T18:31:57.180Z,104031.25
2023-01-23T18:34:49.528Z,104029.38
2023-01-23T18:37:27.157Z,104029.94
2023-01-23T18:40:12.303Z,104033.94
2023-01-23T18:42:49.165Z,104032.06
2023-01-23T18:45:26.423Z,104032.06
2023-01-23T18:47:54.269Z,104026.66
2023-01-23T18:50:22.985Z,104026.09
2023-01-23T18:53:02.687Z,104022.38
2023-01-23T18:55:36.385Z,104027.47
2023-01-23T18:58:21.506Z,104018.59
2023-01-23T19:00:58.311Z,104029.13
2023-01-23T19:03:40.299Z,104029.38
2023-01-23T19:06:18.869Z,104020.72
2023-01-23T19:08:45.710Z,104024.22
2023-01-23T19:11:19.554Z,104027.75
2023-01-23T19:14:00.346Z,104032.28
2023-01-23T19:16:30.552Z,104033.13
2023-01-23T19:19:10.706Z,104032.06
2023-01-23T19:21:42.998Z,104031.25
2023-01-23T19:24:12.113Z,104031.25
2023-01-23T19:26:42.165Z,104029.94
2023-01-23T19:29:25.809Z,104028.03
2023-01-23T19:32:04.141Z,104035.31
2023-01-23T19:34:33.833Z,104030.47
2023-01-23T19:37:00.470Z,104036.13
2023-01-23T19:39:27.060Z,104038.81
2023-01-23T19:41:54.439Z,104031.28
2023-01-23T19:44:24.972Z,104035.88
2023-01-23T19:46:53.409Z,104043.69
2023-01-23T19:49:20.272Z,104036.44
2023-01-23T19:51:47.189Z,104046.13
2023-01-23T19:54:14.971Z,104048.00
2023-01-23T19:56:42.303Z,104049.09
2023-01-23T19:59:10.007Z,104049.09
2023-01-23T20:01:40.447Z,104057.41
2023-01-23T20:04:16.158Z,104060.09
2023-01-23T20:06:45.555Z,104058.19
2023-01-23T20:09:16.028Z,104060.34
2023-01-23T20:11:44.916Z,104065.47
2023-01-23T20:14:11.761Z,104061.13
2023-01-23T20:16:40.556Z,104061.13
2023-01-23T20:19:07.760Z,104056.59
2023-01-23T20:21:35.587Z,104057.41
2023-01-23T20:24:03.166Z,104060.34
2023-01-23T20:26:29.829Z,104063.03
2023-01-23T20:28:58.966Z,104063.84
2023-01-23T20:31:25.863Z,104072.19
2023-01-23T20:33:53.589Z,104075.91
2023-01-23T20:36:20.122Z,104071.63
2023-01-23T20:38:46.972Z,104072.41
2023-01-23T20:41:16.680Z,104069.50
2023-01-23T20:43:43.489Z,104067.84
2023-01-23T20:46:12.132Z,104071.38
2023-01-23T20:48:41.573Z,104072.75
2023-01-23T20:51:12.402Z,104070.06
2023-01-23T20:53:40.070Z,104068.16
2023-01-23T20:56:11.356Z,104069.16
2023-01-23T20:59:02.932Z,104064.88
2023-01-23T21:01:51.931Z,104070.50
2023-01-23T21:04:18.756Z,104064.59
2023-01-23T21:06:45.580Z,104073.22
2023-01-23T21:09:13.144Z,104059.53
2023-01-23T21:11:39.758Z,104066.53
2023-01-23T21:14:06.271Z,104064.09
2023-01-23T21:16:32.874Z,104073.22
2023-01-23T21:19:02.070Z,104062.22
2023-01-23T21:21:28.769Z,104071.09
2023-01-23T21:23:55.512Z,104068.69
2023-01-23T21:26:24.829Z,104069.72
2023-01-23T21:28:52.889Z,104072.09
2023-01-23T21:31:25.257Z,104078.03
2023-01-23T21:33:53.176Z,104080.50
2023-01-23T21:36:23.390Z,104072.97
2023-01-23T21:38:52.162Z,104069.50
2023-01-23T21:41:19.741Z,104066.22
2023-01-23T21:43:46.543Z,104067.28
2023-01-23T21:46:13.539Z,104068.69
2023-01-23T21:48:40.066Z,104068.41
2023-01-23T21:51:17.024Z,104064.34
2023-01-23T21:53:47.607Z,104072.41
2023-01-23T21:56:16.655Z,104065.44
2023-01-23T21:58:45.086Z,104068.94
2023-01-23T22:01:33.735Z,104080.50
2023-01-23T22:04:04.788Z,104073.50
2023-01-23T22:06:32.670Z,104077.25
2023-01-23T22:09:00.262Z,104082.88
2023-01-23T22:11:27.301Z,104082.88
2023-01-23T22:13:55.057Z,104085.31
2023-01-23T22:16:31.911Z,104078.03
2023-01-23T22:19:02.622Z,104081.56
2023-01-23T22:21:29.543Z,104082.63
2023-01-23T22:23:56.096Z,104082.34
2023-01-23T22:26:24.086Z,104086.63
2023-01-23T22:28:50.776Z,104079.66
2023-01-23T22:31:18.375Z,104084.75
2023-01-23T22:33:47.797Z,104088.53
2023-01-23T22:36:17.407Z,104091.22
2023-01-23T22:38:44.197Z,104094.94
2023-01-23T22:41:15.087Z,104085.84
2023-01-23T22:43:41.800Z,104082.34
2023-01-23T22:46:12.636Z,104094.47
2023-01-23T22:48:39.761Z,104090.13
2023-01-23T22:51:14.127Z,104094.47
2023-01-23T22:53:40.902Z,104090.41
2023-01-23T22:56:08.054Z,104096.03
2023-01-23T22:58:36.185Z,104092.53
2023-01-23T23:01:03.262Z,104082.56
2023-01-23T23:03:32.738Z,104080.94
2023-01-23T23:06:01.697Z,104087.97
2023-01-23T23:08:28.937Z,104074.50
2023-01-23T23:11:02.811Z,104086.06
2023-01-23T23:13:32.057Z,104085.03
2023-01-23T23:16:03.362Z,104085.84
2023-01-23T23:18:30.173Z,104090.41
2023-01-23T23:21:00.348Z,104087.41
2023-01-23T23:23:27.108Z,104088.72
2023-01-23T23:25:55.287Z,104091.16
2023-01-23T23:28:23.817Z,104089.28
2023-01-23T23:30:50.712Z,104085.78
2023-01-23T23:33:17.573Z,104091.97
2023-01-23T23:35:44.926Z,104087.16
2023-01-23T23:38:13.321Z,104092.25
2023-01-23T23:40:39.984Z,104089.84
2023-01-23T23:43:06.775Z,104089.00
2023-01-23T23:45:34.371Z,104095.72
2023-01-23T23:48:03.161Z,104093.00
2023-01-23T23:50:32.927Z,104092.22
2023-01-23T23:52:59.601Z,104093.00
2023-01-23T23:55:26.136Z,104081.44
2023-01-23T23:57:52.632Z,104082.00
